메인 페이지
METAR-TAF:

METAR-TAF

공항 :

음완자, 탄자니아

위도: 02-28S, 경도: 032-55E, 고도: 1139m

현재 날씨관측

예보는 40분 전, 11:00시(UTC)에 발표되었습니다.
북북서11kt
온도 29°C
습도 35%
기압 1019 hPa
시정 10km 이상
1500m 미만 상공 구름 및 적란운 없음

METAR: HTMW 241100Z 34011KT CAVOK 29/12 Q1019 NOSIG

시각: 14:40 (11:40 UTC)

예보

예보는 6 시간 40분 전, 05:00시(UTC)에 발표되었습니다.
예보 대상 시간: 24일 06시부터 25일 06시까지 (UTC)
동남동10kt
시정 10km 이상
고도 2200ft 상공 구름 조금
고도 2300ft 상공 구름 조금, 적란운.
전환 중
24일 12시부터 24일 14시까지 (UTC)
북북서10kt

TAF: HTMW 240500Z 2406/2506 12010KT 9999 FEW022 FEW023CB BECMG 2412/2414 34010KT

4,000개 이상의 공항 관측 자료 및 예보 (METAR 및 TAF 보고).

지도상에서 검색 가능한 기상관측소가 노란 점과 빨간 점으로 표시되어 있습니다.

기상관측소 명을 보려면 표시 위로 마우스를 이동하세요.

날씨 관측과 예보를 보려면 클릭하세요.

지도 변경 : 확대하려면 엑스 표시가 있는 녹색 버튼, 축소하려면 빼기 표시가 있는 녹색 버튼, 다음 페이지의 지도를 보려면 녹색 화살표를 클릭하세요.


METAR-TAF: